Terminal Aerodrome Forecast
Issued by NWS

Home | Current Version | Previous Version | Graphics & Text | Print | Product List | Glossary On
Versions: 1 2 3 4 5 6 7 8 9 10 11 12 13 14 15 16
000
FTUS41 KCLE 291100
TAFFDY
TAF
KFDY 291139Z 2912/3012 28003KT 1SM BR SKC
     FM291300 28003KT 3SM BR SKC
     FM291400 31005KT P6SM SKC
     FM300000 24003KT P6SM SCT100 BKN250
     FM300900 31005KT P6SM VCSH BKN040 OVC100
     FM301100 31007KT P6SM BKN015 OVC040=

USA.gov is the U.S. government's official web portal to all federal, state and local government web resources and services.